createdAt,value
2019-05-21T00:00:52.320Z,98183.70
2019-05-21T00:03:42.252Z,98189.91
2019-05-21T00:06:32.134Z,98184.19
2019-05-21T00:09:21.911Z,98181.77
2019-05-21T00:12:11.717Z,98183.58
2019-05-21T00:15:01.537Z,98189.46
2019-05-21T00:17:51.413Z,98192.20
2019-05-21T00:20:41.181Z,98193.84
2019-05-21T00:23:31.019Z,98194.05
2019-05-21T00:26:32.860Z,98187.78
2019-05-21T00:29:43.568Z,98190.80
2019-05-21T00:32:53.487Z,98201.39
2019-05-21T00:36:23.055Z,98199.22
2019-05-21T00:39:31.569Z,98198.48
2019-05-21T00:45:31.481Z,98207.46
2019-05-21T00:48:21.659Z,98203.63
2019-05-21T00:51:11.491Z,98203.47
2019-05-21T00:54:01.310Z,98194.19
2019-05-21T00:56:51.227Z,98189.84
2019-05-21T00:59:41.114Z,98191.50
2019-05-21T01:02:11.606Z,98200.40
2019-05-21T01:08:04.759Z,98202.13
2019-05-21T01:10:54.589Z,98201.93
2019-05-21T01:13:44.414Z,98202.37
2019-05-21T01:16:34.358Z,98205.01
2019-05-21T01:19:04.825Z,98207.34
2019-05-21T01:21:54.658Z,98208.50
2019-05-21T01:24:44.437Z,98208.38
2019-05-21T01:27:34.310Z,98210.13
2019-05-21T01:30:24.196Z,98207.49
2019-05-21T01:33:14.347Z,98207.89
2019-05-21T01:35:44.763Z,98207.22
2019-05-21T01:38:34.529Z,98210.61
2019-05-21T01:41:24.887Z,98211.45
2019-05-21T01:44:14.698Z,98212.97
2019-05-21T01:47:23.665Z,98210.33
2019-05-21T01:49:55.778Z,98210.25
2019-05-21T01:52:45.616Z,98211.25
2019-05-21T01:55:35.791Z,98213.49
2019-05-21T01:58:25.665Z,98211.18
2019-05-21T02:01:15.508Z,98209.02
2019-05-21T02:04:05.455Z,98210.49
2019-05-21T02:06:55.632Z,98216.69
2019-05-21T02:09:27.779Z,98210.85
2019-05-21T02:12:17.638Z,98209.25
2019-05-21T02:18:11.051Z,98210.78
2019-05-21T02:20:41.518Z,98210.20
2019-05-21T02:23:31.404Z,98211.02
2019-05-21T02:26:21.169Z,98199.56
2019-05-21T02:29:11.003Z,98202.56
2019-05-21T02:32:00.841Z,98201.33
2019-05-21T02:34:50.717Z,98199.36
2019-05-21T02:37:40.490Z,98196.64
2019-05-21T02:43:14.117Z,98199.55
2019-05-21T02:46:03.917Z,98199.28
2019-05-21T02:48:53.753Z,98202.41
2019-05-21T02:51:43.517Z,98209.30
2019-05-21T02:54:40.725Z,98212.44
2019-05-21T02:57:16.337Z,98214.95
2019-05-21T03:05:47.435Z,98200.16
2019-05-21T03:08:37.238Z,98205.39
2019-05-21T03:11:27.086Z,98204.66
2019-05-21T03:14:16.877Z,98205.90
2019-05-21T03:17:06.754Z,98207.41
2019-05-21T03:19:56.529Z,98208.52
2019-05-21T03:22:46.351Z,98214.33
2019-05-21T03:25:36.273Z,98213.48
2019-05-21T03:28:26.161Z,98213.33
2019-05-21T03:31:15.975Z,98211.81
2019-05-21T03:34:05.830Z,98204.58
2019-05-21T03:36:36.400Z,98201.77
2019-05-21T03:39:26.238Z,98206.33
2019-05-21T03:42:16.091Z,98207.30
2019-05-21T03:45:07.769Z,98209.13
2019-05-21T03:47:49.312Z,98202.25
2019-05-21T03:50:39.111Z,98210.60
2019-05-21T03:53:28.876Z,98204.63
2019-05-21T03:56:18.645Z,98205.93
2019-05-21T03:59:08.402Z,98216.39
2019-05-21T04:01:58.216Z,98218.31
2019-05-21T04:04:28.610Z,98217.52
2019-05-21T04:07:18.415Z,98223.80
2019-05-21T04:10:35.491Z,98216.97
2019-05-21T04:13:25.389Z,98220.19
2019-05-21T04:16:34.079Z,98218.02
2019-05-21T04:19:16.753Z,98221.34
2019-05-21T04:25:31.047Z,98225.28
2019-05-21T04:28:20.851Z,98226.07
2019-05-21T04:31:10.749Z,98224.70
2019-05-21T04:34:00.502Z,98232.48
2019-05-21T04:36:50.330Z,98238.98
2019-05-21T04:39:40.137Z,98241.95
2019-05-21T04:42:29.967Z,98244.02
2019-05-21T04:45:19.754Z,98239.59
2019-05-21T04:48:09.619Z,98245.84
2019-05-21T04:50:59.459Z,98245.06
2019-05-21T04:53:48.584Z,98251.04
2019-05-21T04:56:39.308Z,98250.34
2019-05-21T04:59:29.100Z,98253.57
2019-05-21T05:02:18.895Z,98254.36
2019-05-21T05:05:08.698Z,98261.31
2019-05-21T05:07:58.509Z,98259.37
2019-05-21T05:10:49.419Z,98263.38
2019-05-21T05:13:31.406Z,98270.25
2019-05-21T05:16:21.234Z,98265.97
2019-05-21T05:19:11.081Z,98267.91
2019-05-21T05:22:00.877Z,98272.75
2019-05-21T05:24:50.732Z,98274.18
2019-05-21T05:30:45.840Z,98266.73
2019-05-21T05:33:35.638Z,98261.05
2019-05-21T05:36:25.498Z,98267.62
2019-05-21T05:39:15.444Z,98264.84
2019-05-21T05:42:05.196Z,98275.41
2019-05-21T05:44:55.014Z,98275.61
2019-05-21T05:47:44.873Z,98285.53
2019-05-21T05:53:19.490Z,98287.78
2019-05-21T05:56:09.349Z,98278.54
2019-05-21T05:58:59.290Z,98280.47
2019-05-21T06:04:13.922Z,98283.91
2019-05-21T06:07:03.783Z,98291.55
2019-05-21T06:09:53.650Z,98294.19
2019-05-21T06:12:25.796Z,98297.99
2019-05-21T06:15:15.825Z,98295.44
2019-05-21T06:18:05.641Z,98313.39
2019-05-21T06:20:55.451Z,98308.55
2019-05-21T06:23:45.225Z,98311.28
2019-05-21T06:26:35.041Z,98311.76
2019-05-21T06:29:24.828Z,98311.97
2019-05-21T06:32:14.695Z,98316.04
2019-05-21T06:35:04.602Z,98314.66
2019-05-21T06:37:54.440Z,98314.75
2019-05-21T06:40:44.370Z,98315.75
2019-05-21T06:43:14.953Z,98318.82
2019-05-21T06:46:04.733Z,98318.44
2019-05-21T06:48:35.221Z,98322.95
2019-05-21T06:51:24.961Z,98326.01
2019-05-21T06:54:14.779Z,98325.84
2019-05-21T06:56:45.191Z,98330.34
2019-05-21T06:59:34.973Z,98335.05
2019-05-21T07:02:05.483Z,98332.64
2019-05-21T07:04:37.494Z,98326.66
2019-05-21T07:07:27.357Z,98335.95
2019-05-21T07:10:17.123Z,98336.77
2019-05-21T07:13:06.952Z,98337.11
2019-05-21T07:15:56.774Z,98337.70
2019-05-21T07:18:46.539Z,98343.17
2019-05-21T07:21:36.367Z,98337.64
2019-05-21T07:24:28.331Z,98341.89
2019-05-21T07:27:09.071Z,98338.92
2019-05-21T07:33:05.731Z,98334.28
2019-05-21T07:35:56.788Z,98334.33
2019-05-21T07:38:53.454Z,98338.60
2019-05-21T07:41:29.390Z,98344.03
2019-05-21T07:44:19.170Z,98343.98
2019-05-21T07:47:09.048Z,98343.46
2019-05-21T07:49:58.851Z,98346.87
2019-05-21T07:52:48.687Z,98339.64
2019-05-21T07:55:38.496Z,98344.92
2019-05-21T07:58:08.924Z,98347.20
2019-05-21T08:01:01.219Z,98350.90
2019-05-21T08:03:50.200Z,98345.86
2019-05-21T08:06:40.005Z,98345.74
2019-05-21T08:09:29.745Z,98342.42
2019-05-21T08:12:37.502Z,98344.88
2019-05-21T08:18:40.217Z,98350.83
2019-05-21T08:21:29.996Z,98355.66
2019-05-21T08:24:19.786Z,98359.08
2019-05-21T08:27:09.574Z,98356.89
2019-05-21T08:30:18.378Z,98366.86
2019-05-21T08:33:08.150Z,98369.40
2019-05-21T08:35:57.948Z,98366.03
2019-05-21T08:38:47.788Z,98374.80
2019-05-21T08:41:19.793Z,98370.98
2019-05-21T08:44:09.673Z,98376.04
2019-05-21T08:46:59.444Z,98384.56
2019-05-21T08:49:49.291Z,98387.79
2019-05-21T08:52:39.072Z,98392.97
2019-05-21T08:55:28.890Z,98397.44
2019-05-21T08:58:18.707Z,98391.04
2019-05-21T09:01:08.421Z,98387.39
2019-05-21T09:03:38.841Z,98393.65
2019-05-21T09:06:09.254Z,98404.73
2019-05-21T09:08:59.063Z,98418.67
2019-05-21T09:11:48.903Z,98417.38
2019-05-21T09:14:38.671Z,98415.64
2019-05-21T09:17:09.073Z,98427.11
2019-05-21T09:19:58.910Z,98437.62
2019-05-21T09:22:48.663Z,98448.31
2019-05-21T09:25:38.514Z,98444.19
2019-05-21T09:28:09.003Z,98435.95
2019-05-21T09:31:01.609Z,98438.97
2019-05-21T09:33:50.308Z,98446.69
2019-05-21T09:36:40.161Z,98451.14
2019-05-21T09:39:29.974Z,98448.41
2019-05-21T09:42:19.746Z,98449.96
2019-05-21T09:48:14.973Z,98447.11
2019-05-21T09:51:04.765Z,98455.91
2019-05-21T09:53:35.232Z,98455.91
2019-05-21T09:59:49.774Z,98452.03
2019-05-21T10:02:51.546Z,98444.86
2019-05-21T10:05:24.128Z,98449.48
2019-05-21T10:08:13.905Z,98444.63
2019-05-21T10:11:03.885Z,98446.20
2019-05-21T10:16:58.650Z,98448.58
2019-05-21T10:19:48.488Z,98448.08
2019-05-21T10:22:19.147Z,98444.64
2019-05-21T10:25:09.008Z,98449.19
2019-05-21T10:27:58.873Z,98452.53
2019-05-21T10:30:48.621Z,98457.27
2019-05-21T10:33:38.428Z,98453.73
2019-05-21T10:36:08.900Z,98453.77
2019-05-21T10:38:58.711Z,98461.56
2019-05-21T10:41:48.477Z,98458.91
2019-05-21T10:44:38.277Z,98462.22
2019-05-21T10:47:08.787Z,98461.80
2019-05-21T10:49:58.625Z,98465.80
2019-05-21T10:52:48.434Z,98472.77
2019-05-21T10:55:38.250Z,98469.80
2019-05-21T10:58:08.736Z,98464.77
2019-05-21T11:04:20.098Z,98470.52
2019-05-21T11:07:11.628Z,98474.42
2019-05-21T11:10:01.467Z,98471.72
2019-05-21T11:12:51.291Z,98467.63
2019-05-21T11:15:41.133Z,98458.44
2019-05-21T11:18:31.009Z,98485.63
2019-05-21T11:24:08.460Z,98463.85
2019-05-21T11:30:00.503Z,98475.11
2019-05-21T11:32:32.501Z,98491.84
2019-05-21T11:35:22.433Z,98475.59
2019-05-21T11:38:12.216Z,98465.47
2019-05-21T11:41:02.082Z,98473.39
2019-05-21T11:43:51.867Z,98481.44
2019-05-21T11:46:41.719Z,98488.37
2019-05-21T11:49:31.561Z,98530.90
2019-05-21T11:52:21.361Z,98490.89
2019-05-21T11:55:11.224Z,98499.53
2019-05-21T11:57:41.870Z,98496.41
2019-05-21T12:00:31.774Z,98501.44
2019-05-21T12:03:21.636Z,98501.94
2019-05-21T12:06:11.484Z,98500.21
2019-05-21T12:09:02.197Z,98498.00
2019-05-21T12:11:52.024Z,98494.72
2019-05-21T12:15:00.905Z,98487.80
2019-05-21T12:17:50.701Z,98502.80
2019-05-21T12:23:27.191Z,98512.44
2019-05-21T12:26:17.048Z,98502.55
2019-05-21T12:29:06.827Z,98526.17
2019-05-21T12:31:56.600Z,98485.21
2019-05-21T12:34:28.618Z,98494.73
2019-05-21T12:37:18.457Z,98499.59
2019-05-21T12:43:11.839Z,98547.17
2019-05-21T12:46:01.660Z,98493.09
2019-05-21T12:48:51.432Z,98504.53
2019-05-21T12:51:41.259Z,98493.66
2019-05-21T12:54:31.142Z,98501.16
2019-05-21T12:57:20.916Z,98523.54
2019-05-21T13:03:15.040Z,98509.42
2019-05-21T13:06:04.777Z,98489.76
2019-05-21T13:08:54.615Z,98493.90
2019-05-21T13:11:44.404Z,98512.10
2019-05-21T13:14:34.251Z,98510.41
2019-05-21T13:17:24.044Z,98486.95
2019-05-21T13:23:18.195Z,98541.89
2019-05-21T13:26:08.769Z,98533.96
2019-05-21T13:28:50.871Z,98488.13
2019-05-21T13:31:40.650Z,98495.50
2019-05-21T13:34:30.561Z,98507.37
2019-05-21T13:37:00.993Z,98498.03
2019-05-21T13:39:51.205Z,98552.57
2019-05-21T13:42:41.020Z,98546.47
2019-05-21T13:45:30.839Z,98497.49
2019-05-21T13:48:20.727Z,98496.55
2019-05-21T13:51:10.589Z,98499.32
2019-05-21T13:54:00.369Z,98515.99
2019-05-21T13:56:50.251Z,98592.38
2019-05-21T13:59:40.077Z,98537.52
2019-05-21T14:02:30.062Z,98510.91
2019-05-21T14:08:03.516Z,98505.09
2019-05-21T14:10:53.672Z,98515.83
2019-05-21T14:13:43.510Z,98520.38
2019-05-21T14:16:34.885Z,98536.90
2019-05-21T14:19:18.272Z,98538.16
2019-05-21T14:22:08.499Z,98533.80
2019-05-21T14:24:58.268Z,98525.94
2019-05-21T14:27:43.151Z,98532.25
2019-05-21T14:30:20.318Z,98526.16
2019-05-21T14:33:10.209Z,98550.15
2019-05-21T14:35:59.962Z,98557.47
2019-05-21T14:38:30.414Z,98526.67
2019-05-21T14:41:20.163Z,98535.09
2019-05-21T14:44:09.959Z,98523.75
2019-05-21T14:46:59.734Z,98531.85
2019-05-21T14:49:49.594Z,98522.73
2019-05-21T14:52:39.377Z,98542.69
2019-05-21T14:55:11.450Z,98526.12
2019-05-21T14:58:01.223Z,98552.64
2019-05-21T15:00:51.165Z,98554.28
2019-05-21T15:03:25.267Z,98539.05
2019-05-21T15:06:04.536Z,98533.98
2019-05-21T15:08:54.388Z,98579.88
2019-05-21T15:11:44.221Z,98538.28
2019-05-21T15:14:34.012Z,98535.20
2019-05-21T15:17:23.875Z,98539.58
2019-05-21T15:23:18.618Z,98568.73
2019-05-21T15:26:08.476Z,98546.55
2019-05-21T15:28:58.318Z,98531.01
2019-05-21T15:31:48.188Z,98559.77
2019-05-21T15:34:18.589Z,98525.77
2019-05-21T15:37:08.346Z,98542.13
2019-05-21T15:39:58.181Z,98531.56
2019-05-21T15:42:52.819Z,98522.27
2019-05-21T15:45:30.788Z,98538.16
2019-05-21T15:48:20.618Z,98531.06
2019-05-21T15:51:10.472Z,98537.86
2019-05-21T15:54:00.265Z,98563.97
2019-05-21T15:56:50.091Z,98532.53
2019-05-21T15:59:39.906Z,98540.69
2019-05-21T16:02:41.819Z,98537.16
2019-05-21T16:05:12.865Z,98556.09
2019-05-21T16:08:02.382Z,98556.48
2019-05-21T16:10:53.126Z,98541.84
2019-05-21T16:13:42.981Z,98562.95
2019-05-21T16:16:32.816Z,98597.56
2019-05-21T16:19:22.723Z,98573.77
2019-05-21T16:22:12.553Z,98562.09
2019-05-21T16:25:02.449Z,98563.79
2019-05-21T16:27:52.398Z,98547.53
2019-05-21T16:30:23.157Z,98548.70
2019-05-21T16:33:12.960Z,98552.53
2019-05-21T16:36:02.793Z,98558.92
2019-05-21T16:38:52.731Z,98566.75
2019-05-21T16:41:45.144Z,98560.93
2019-05-21T16:44:34.129Z,98557.91
2019-05-21T16:47:24.415Z,98567.04
2019-05-21T16:50:15.941Z,98559.73
2019-05-21T16:53:05.773Z,98618.11
2019-05-21T16:55:55.652Z,98569.84
2019-05-21T16:58:45.533Z,98572.42
2019-05-21T17:01:36.592Z,98577.19
2019-05-21T17:04:26.451Z,98571.59
2019-05-21T17:07:16.228Z,98581.84
2019-05-21T17:13:09.039Z,98571.61
2019-05-21T17:15:58.982Z,98577.28
2019-05-21T17:18:48.791Z,98580.78
2019-05-21T17:21:38.596Z,98581.16
2019-05-21T17:24:09.186Z,98591.77
2019-05-21T17:26:59.012Z,98581.33
2019-05-21T17:29:29.470Z,98578.55
2019-05-21T17:32:19.357Z,98565.90
2019-05-21T17:35:09.437Z,98584.94
2019-05-21T17:37:59.310Z,98575.83
2019-05-21T17:40:49.157Z,98571.94
2019-05-21T17:43:38.920Z,98575.87
2019-05-21T17:46:09.431Z,98575.20
2019-05-21T17:49:13.586Z,98571.02
2019-05-21T17:51:42.756Z,98573.38
2019-05-21T17:54:33.393Z,98557.62
2019-05-21T17:57:23.504Z,98591.19
2019-05-21T18:03:18.528Z,98570.07
2019-05-21T18:06:08.629Z,98552.87
2019-05-21T18:08:58.463Z,98534.59
2019-05-21T18:11:28.919Z,98536.04
2019-05-21T18:13:59.502Z,98551.66
2019-05-21T18:16:49.291Z,98534.36
2019-05-21T18:19:39.155Z,98555.28
2019-05-21T18:27:50.737Z,98565.08
2019-05-21T18:30:40.807Z,98547.73
2019-05-21T18:33:30.688Z,98569.23
2019-05-21T18:36:20.473Z,98548.78
2019-05-21T18:39:10.400Z,98609.91
2019-05-21T18:42:00.086Z,98553.18
2019-05-21T18:44:49.942Z,98561.41
2019-05-21T18:47:39.858Z,98560.42
2019-05-21T18:50:36.419Z,98575.72
2019-05-21T18:53:13.071Z,98602.41
2019-05-21T18:56:02.873Z,98593.40
2019-05-21T18:58:52.744Z,98581.81
2019-05-21T19:01:42.582Z,98594.09
2019-05-21T19:04:32.431Z,98591.28
2019-05-21T19:07:22.638Z,98595.68
2019-05-21T19:10:12.696Z,98608.17
2019-05-21T19:13:02.544Z,98618.62
2019-05-21T19:15:52.645Z,98616.50
2019-05-21T19:18:42.570Z,98609.77
2019-05-21T19:21:32.519Z,98614.02
2019-05-21T19:24:22.518Z,98613.23
2019-05-21T19:27:12.474Z,98612.78
2019-05-21T19:30:02.356Z,98602.28
2019-05-21T19:32:52.261Z,98618.88
2019-05-21T19:35:47.682Z,98630.53
2019-05-21T19:38:37.676Z,98640.08
2019-05-21T19:41:44.369Z,98654.11
2019-05-21T19:44:34.288Z,98637.42
2019-05-21T19:47:24.140Z,98642.19
2019-05-21T19:50:14.071Z,98631.25
2019-05-21T19:53:03.974Z,98633.22
2019-05-21T19:55:53.893Z,98647.30
2019-05-21T19:58:43.797Z,98641.05
2019-05-21T20:05:03.917Z,98634.31
2019-05-21T20:07:53.739Z,98661.80
2019-05-21T20:10:43.812Z,98651.58
2019-05-21T20:13:33.672Z,98648.89
2019-05-21T20:19:07.617Z,98654.13
2019-05-21T20:21:57.648Z,98686.52
2019-05-21T20:27:25.249Z,98656.25
2019-05-21T20:32:59.327Z,98677.60
2019-05-21T20:38:53.958Z,98698.47
2019-05-21T20:41:44.723Z,98664.66
2019-05-21T20:44:34.674Z,98675.42
2019-05-21T20:53:19.278Z,98665.57
2019-05-21T20:56:24.790Z,98660.78
2019-05-21T20:58:53.326Z,98672.61
2019-05-21T21:01:43.457Z,98675.54
2019-05-21T21:07:16.713Z,98697.73
2019-05-21T21:10:07.085Z,98687.44
2019-05-21T21:12:56.965Z,98680.52
2019-05-21T21:18:30.770Z,98678.25
2019-05-21T21:21:01.357Z,98680.24
2019-05-21T21:24:30.597Z,98684.05
2019-05-21T21:27:20.487Z,98681.38
2019-05-21T21:30:10.529Z,98670.39
2019-05-21T21:33:01.094Z,98679.62
2019-05-21T21:44:42.482Z,98670.05
2019-05-21T21:47:32.325Z,98666.63
2019-05-21T21:50:34.651Z,98667.73
2019-05-21T21:53:06.894Z,98650.56
2019-05-21T21:55:56.716Z,98662.09
2019-05-21T21:58:46.600Z,98668.97
2019-05-21T22:02:03.587Z,98686.91
2019-05-21T22:04:53.727Z,98679.31
2019-05-21T22:08:02.523Z,98665.95
2019-05-21T22:10:52.583Z,98690.89
2019-05-21T22:13:42.420Z,98696.26
2019-05-21T22:16:32.510Z,98662.19
2019-05-21T22:24:50.360Z,98655.31
2019-05-21T22:27:51.652Z,98671.63
2019-05-21T22:35:54.149Z,98683.87
2019-05-21T22:38:43.970Z,98686.20
2019-05-21T22:41:34.193Z,98666.83
2019-05-21T22:44:24.035Z,98715.63
2019-05-21T22:46:54.728Z,98706.78
2019-05-21T22:49:44.666Z,98671.52
2019-05-21T22:52:34.530Z,98682.60
2019-05-21T22:55:24.312Z,98689.16
2019-05-21T22:57:54.763Z,98681.18
2019-05-21T23:03:41.198Z,98717.83
2019-05-21T23:06:31.000Z,98664.73
2019-05-21T23:09:21.070Z,98665.83
2019-05-21T23:12:11.180Z,98680.15
2019-05-21T23:15:00.982Z,98666.33
2019-05-21T23:21:14.021Z,98660.30
2019-05-21T23:26:47.886Z,98660.08
2019-05-21T23:32:22.038Z,98692.83
2019-05-21T23:37:56.697Z,98674.58
2019-05-21T23:43:31.743Z,98664.60
2019-05-21T23:46:21.728Z,98653.70
2019-05-21T23:49:11.694Z,98664.58
2019-05-21T23:52:01.617Z,98659.25
2019-05-21T23:54:51.478Z,98658.86
